Time;durP1;ratioP1;P1;durP2;ratioP2;P2;SDS_P1;SDS_P2;PMS_P1;PMS_P2;Temp;Humidity;BMP_temperature;BMP_pressure;BME280_temperature;BME280_humidity;BME280_pressure;Samples;Min_cycle;Max_cycle;Signal;HPM_P1;HPM_P2
2021/08/21 00:00:36;;;;;;;6.25;4.63;;;;;;;19.91;70.38;95839.75;5033821;28;20693;-85
2021/08/21 00:03:03;;;;;;;5.03;4.53;;;;;;;19.81;70.53;95831.69;5034128;28;20202;-84
2021/08/21 00:05:29;;;;;;;5.30;4.80;;;;;;;19.76;70.76;95837.59;5034587;28;20487;-86
2021/08/21 00:07:56;;;;;;;5.95;4.88;;;;;;;19.74;71.71;95842.25;5034797;28;20573;-81
2021/08/21 00:10:26;;;;;;;6.68;4.55;;;;;;;19.81;71.02;95839.53;5034802;28;20601;-84
2021/08/21 00:12:53;;;;;;;5.60;5.03;;;;;;;19.83;71.15;95840.06;5034122;28;20269;-82
2021/08/21 00:15:20;;;;;;;5.30;4.80;;;;;;;19.81;71.31;95832.50;5034327;28;20217;-85
2021/08/21 00:17:49;;;;;;;5.10;4.60;;;;;;;19.84;70.59;95831.22;5034235;28;20206;-84
2021/08/21 00:20:16;;;;;;;5.97;5.22;;;;;;;19.85;70.44;95831.00;5033879;28;20202;-85
2021/08/21 00:22:45;;;;;;;5.03;4.50;;;;;;;19.84;70.30;95837.25;5033452;28;20213;-85
2021/08/21 00:25:13;;;;;;;5.22;4.72;;;;;;;19.79;70.23;95831.91;5034383;28;20202;-86
2021/08/21 00:27:43;;;;;;;5.00;4.45;;;;;;;19.76;70.45;95832.38;5033712;28;20202;-86
2021/08/21 00:30:12;;;;;;;5.90;5.40;;;;;;;19.58;71.38;95830.66;5034094;28;20229;-84
2021/08/21 00:32:38;;;;;;;5.82;5.32;;;;;;;19.52;72.01;95828.94;5033743;28;20286;-83
2021/08/21 00:35:09;;;;;;;5.60;4.80;;;;;;;19.53;72.00;95824.53;5033223;28;20716;-81
2021/08/21 00:37:38;;;;;;;5.88;5.35;;;;;;;19.57;71.73;95828.28;5034424;28;20224;-80
2021/08/21 00:40:05;;;;;;;5.30;4.80;;;;;;;19.58;71.76;95828.06;5032713;28;20432;-85
2021/08/21 00:42:32;;;;;;;6.50;5.40;;;;;;;19.60;71.76;95823.41;5032067;28;20205;-84
2021/08/21 00:45:00;;;;;;;5.47;4.88;;;;;;;19.64;71.20;95827.13;5032744;28;20301;-83
2021/08/21 00:47:27;;;;;;;6.00;5.40;;;;;;;19.73;70.90;95824.97;5032944;28;20218;-85
2021/08/21 00:49:55;;;;;;;6.88;5.90;;;;;;;19.68;71.67;95824.84;5032597;28;20236;-82
2021/08/21 00:52:24;;;;;;;5.85;5.35;;;;;;;19.63;71.73;95825.53;5032871;28;20209;-86
2021/08/21 00:54:52;;;;;;;6.32;5.32;;;;;;;19.52;72.29;95820.31;5032283;28;20739;-86
2021/08/21 00:57:20;;;;;;;6.75;5.70;;;;;;;19.55;71.84;95815.44;5032589;28;20213;-86
2021/08/21 00:59:49;;;;;;;6.20;5.47;;;;;;;19.62;71.69;95816.13;5033057;28;20198;-86
2021/08/21 01:02:17;;;;;;;6.60;5.20;;;;;;;19.64;71.27;95815.88;5033244;28;20202;-86
2021/08/21 01:04:45;;;;;;;5.50;5.00;;;;;;;19.57;71.77;95816.00;5032059;28;20229;-87
2021/08/21 01:07:12;;;;;;;5.78;5.28;;;;;;;19.55;72.13;95814.66;5032512;28;20226;-86
2021/08/21 01:09:40;;;;;;;5.30;4.90;;;;;;;19.61;71.28;95814.53;5032096;28;20222;-86
2021/08/21 01:12:08;;;;;;;6.43;5.10;;;;;;;19.56;72.03;95809.19;5018095;28;20194;-86
2021/08/21 01:14:35;;;;;;;5.80;5.13;;;;;;;19.57;71.60;95802.94;5032586;28;20742;-86
2021/08/21 01:17:02;;;;;;;6.07;4.95;;;;;;;19.58;71.70;95816.81;5032667;28;20202;-86
2021/08/21 01:19:32;;;;;;;5.55;5.07;;;;;;;19.48;72.09;95817.31;5032689;28;20199;-86
2021/08/21 01:21:59;;;;;;;5.45;4.95;;;;;;;19.49;71.90;95805.84;5031912;28;20194;-85
2021/08/21 01:24:26;;;;;;;5.72;5.18;;;;;;;19.54;71.60;95807.84;5032353;28;20931;-86
2021/08/21 01:26:54;;;;;;;5.40;4.90;;;;;;;19.39;72.16;95816.09;5032811;28;20210;-86
2021/08/21 01:29:21;;;;;;;6.18;5.25;;;;;;;19.43;71.95;95816.44;5032815;28;20688;-87
2021/08/21 01:31:48;;;;;;;5.40;4.82;;;;;;;19.46;71.81;95811.53;5032908;28;20208;-86
2021/08/21 01:34:15;;;;;;;5.22;4.72;;;;;;;19.53;71.91;95814.06;5032617;28;20230;-86
2021/08/21 01:36:43;;;;;;;6.38;5.13;;;;;;;19.58;71.41;95809.78;5025415;28;20203;-86
2021/08/21 01:39:09;;;;;;;5.85;5.25;;;;;;;19.57;71.38;95816.00;5031630;28;20221;-85
2021/08/21 01:41:36;;;;;;;5.35;4.85;;;;;;;19.43;71.82;95811.22;5032906;28;20198;-86
2021/08/21 01:44:07;;;;;;;5.80;5.25;;;;;;;19.28;72.24;95817.66;5032356;28;20222;-83
2021/08/21 01:46:34;;;;;;;5.95;4.97;;;;;;;19.21;72.97;95808.34;5032788;28;20685;-86
2021/08/21 01:49:01;;;;;;;5.40;4.90;;;;;;;19.30;72.58;95809.59;5032478;28;20206;-86
2021/08/21 01:51:27;;;;;;;5.30;4.85;;;;;;;19.36;71.97;95807.91;5032154;28;20252;-84
2021/08/21 01:53:55;;;;;;;6.38;4.85;;;;;;;19.36;71.64;95807.91;5025232;28;20579;-85
2021/08/21 01:56:22;;;;;;;5.47;4.88;;;;;;;19.38;71.65;95813.69;5014682;28;20202;-83
2021/08/21 01:58:49;;;;;;;5.85;5.03;;;;;;;19.31;72.03;95814.59;5015792;28;20206;-83
2021/08/21 02:01:17;;;;;;;5.82;5.32;;;;;;;19.31;71.77;95813.78;5016076;28;20199;-86
2021/08/21 02:03:46;;;;;;;6.20;5.50;;;;;;;19.24;72.57;95805.28;5015520;28;20233;-86
2021/08/21 02:06:12;;;;;;;6.35;5.32;;;;;;;19.25;71.90;95806.84;5031617;28;20233;-86
2021/08/21 02:08:39;;;;;;;5.28;4.78;;;;;;;19.28;71.88;95814.25;5035437;28;20206;-86
2021/08/21 02:11:05;;;;;;;5.15;4.63;;;;;;;19.30;71.93;95809.59;5035241;28;20221;-84
2021/08/21 02:13:32;;;;;;;5.05;4.55;;;;;;;19.34;71.63;95810.75;5035496;28;20225;-86
2021/08/21 02:15:58;;;;;;;6.95;4.40;;;;;;;19.35;71.22;95801.09;5035545;28;20240;-84
2021/08/21 02:18:26;;;;;;;5.45;4.95;;;;;;;19.26;71.89;95806.63;5035868;28;20198;-84
2021/08/21 02:20:53;;;;;;;4.82;4.43;;;;;;;19.26;71.72;95811.06;5035909;28;20202;-86
2021/08/21 02:23:19;;;;;;;5.70;4.80;;;;;;;19.21;71.81;95810.97;5035596;28;20229;-83
2021/08/21 02:25:55;;;;;;;5.47;4.97;;;;;;;19.17;72.19;95810.59;5035489;28;20202;-86
2021/08/21 02:28:22;;;;;;;5.07;4.57;;;;;;;19.10;72.35;95804.69;5035016;28;20209;-85
2021/08/21 02:30:48;;;;;;;5.30;4.88;;;;;;;19.06;72.06;95813.97;5034987;28;20309;-88
2021/08/21 02:33:20;;;;;;;4.90;4.50;;;;;;;19.07;72.21;95812.94;5034383;28;20620;-83
2021/08/21 02:35:48;;;;;;;5.10;4.70;;;;;;;19.05;72.22;95817.59;5035118;28;20568;-85
2021/08/21 02:38:14;;;;;;;5.75;5.05;;;;;;;19.07;72.12;95812.94;5035600;28;20725;-86
2021/08/21 02:40:52;;;;;;;4.97;4.50;;;;;;;18.97;72.55;95810.91;5034965;28;20685;-86
2021/08/21 02:43:20;;;;;;;5.65;4.55;;;;;;;18.94;72.46;95813.16;5035431;28;20218;-85
2021/08/21 02:45:46;;;;;;;4.68;4.28;;;;;;;18.94;72.08;95807.94;5034628;28;20209;-86
2021/08/21 02:48:16;;;;;;;5.85;4.57;;;;;;;19.03;71.76;95803.19;5034618;28;20206;-84
2021/08/21 02:50:44;;;;;;;5.85;4.63;;;;;;;19.06;71.92;95794.91;5034522;28;20274;-86
2021/08/21 02:53:11;;;;;;;4.65;4.18;;;;;;;19.10;71.62;95798.66;5035218;28;20277;-83
2021/08/21 02:55:38;;;;;;;5.07;4.57;;;;;;;19.03;71.50;95805.81;5034567;28;20682;-86
2021/08/21 02:58:04;;;;;;;4.40;4.10;;;;;;;19.09;71.38;95803.09;5032964;28;20203;-83
2021/08/21 03:00:31;;;;;;;4.55;4.15;;;;;;;19.13;70.98;95800.81;5023647;28;20190;-86
2021/08/21 03:03:00;;;;;;;4.53;4.15;;;;;;;19.01;71.36;95797.41;5035244;28;20210;-86
2021/08/21 03:05:28;;;;;;;4.57;4.18;;;;;;;18.96;71.07;95798.88;5033486;28;20237;-86
2021/08/21 03:07:54;;;;;;;4.63;4.00;;;;;;;18.95;71.20;95805.09;5033338;28;20205;-85
2021/08/21 03:10:23;;;;;;;4.57;4.18;;;;;;;18.96;71.13;95805.91;5033864;28;20255;-86
2021/08/21 03:12:50;;;;;;;4.88;4.45;;;;;;;18.80;71.67;95809.16;5033514;28;20209;-85
2021/08/21 03:15:19;;;;;;;4.90;4.25;;;;;;;18.61;72.20;95811.00;5033997;28;20297;-87
2021/08/21 03:17:48;;;;;;;4.88;3.75;;;;;;;18.60;72.55;95809.41;5033680;28;20198;-86
2021/08/21 03:20:15;;;;;;;4.53;4.10;;;;;;;18.65;71.94;95809.56;5033585;28;20194;-86
2021/08/21 03:22:41;;;;;;;4.45;4.05;;;;;;;18.56;72.81;95819.44;5033628;28;20692;-84
2021/08/21 03:25:08;;;;;;;4.20;3.83;;;;;;;18.61;72.29;95813.63;5033371;28;20313;-87
2021/08/21 03:27:36;;;;;;;4.45;4.05;;;;;;;18.63;72.07;95812.38;5033248;28;20202;-84
2021/08/21 03:30:03;;;;;;;4.80;4.32;;;;;;;18.63;72.02;95807.16;5033701;28;20228;-83
2021/08/21 03:32:32;;;;;;;4.43;4.03;;;;;;;18.61;72.24;95813.63;5033661;28;20202;-84
2021/08/21 03:34:59;;;;;;;4.30;3.85;;;;;;;18.58;72.14;95808.81;5033393;28;20222;-85
2021/08/21 03:37:25;;;;;;;4.25;3.70;;;;;;;18.38;72.44;95809.06;5033462;28;20210;-86
2021/08/21 03:39:52;;;;;;;4.53;4.13;;;;;;;18.13;73.68;95814.34;5033358;28;20202;-86
2021/08/21 03:42:18;;;;;;;6.20;4.85;;;;;;;18.06;74.74;95813.66;5035683;28;20202;-87
2021/08/21 03:44:46;;;;;;;4.63;4.10;;;;;;;18.09;74.89;95813.19;5033593;28;20214;-88
2021/08/21 03:47:13;;;;;;;4.90;4.10;;;;;;;18.14;73.92;95818.56;5034068;28;20198;-87
2021/08/21 03:49:39;;;;;;;4.68;4.28;;;;;;;18.12;74.26;95817.97;5032741;28;20293;-86
2021/08/21 03:52:06;;;;;;;4.50;4.10;;;;;;;18.02;75.20;95819.50;5033253;28;20237;-86
2021/08/21 03:54:35;;;;;;;4.70;4.22;;;;;;;18.05;75.55;95814.66;5033146;28;20222;-85
2021/08/21 03:57:02;;;;;;;4.07;3.67;;;;;;;18.09;75.16;95815.78;5033195;28;20233;-83
2021/08/21 03:59:28;;;;;;;5.25;4.10;;;;;;;18.11;75.15;95818.19;5033267;28;20209;-87
2021/08/21 04:01:56;;;;;;;4.10;3.80;;;;;;;18.16;74.51;95821.72;5033018;28;20205;-84
2021/08/21 04:04:23;;;;;;;4.65;3.90;;;;;;;18.21;74.25;95814.06;5033573;28;20225;-82
2021/08/21 04:06:49;;;;;;;4.07;3.78;;;;;;;18.25;73.59;95814.44;5032579;28;20236;-83
2021/08/21 04:09:16;;;;;;;4.13;3.72;;;;;;;18.22;74.05;95814.88;5033011;28;20206;-85
2021/08/21 04:11:42;;;;;;;4.00;3.70;;;;;;;18.25;73.90;95815.22;5033197;28;20226;-86
2021/08/21 04:14:12;;;;;;;5.68;3.97;;;;;;;18.28;73.73;95812.16;5032557;28;20237;-85
2021/08/21 04:16:38;;;;;;;4.38;3.97;;;;;;;18.33;73.39;95808.09;5033219;28;20595;-84
2021/08/21 04:19:08;;;;;;;4.45;4.05;;;;;;;18.28;73.50;95809.56;5032177;28;20334;-83
2021/08/21 04:21:38;;;;;;;8.10;3.90;;;;;;;18.31;73.23;95808.31;5032860;28;20206;-85
2021/08/21 04:24:05;;;;;;;4.57;4.03;;;;;;;18.34;73.06;95809.69;5032670;28;20226;-85
2021/08/21 04:26:32;;;;;;;3.95;3.65;;;;;;;18.32;72.91;95816.94;5033020;28;20202;-85
2021/08/21 04:28:58;;;;;;;3.92;3.50;;;;;;;18.33;72.77;95819.34;5033975;28;20210;-84
2021/08/21 04:31:25;;;;;;;4.10;3.67;;;;;;;18.35;72.89;95816.50;5032932;28;20233;-86
2021/08/21 04:33:51;;;;;;;4.20;3.80;;;;;;;18.29;73.12;95815.56;5032856;28;20771;-86
2021/08/21 04:36:19;;;;;;;4.00;3.60;;;;;;;18.23;73.26;95824.28;5033611;28;20574;-86
2021/08/21 04:38:46;;;;;;;4.60;4.20;;;;;;;18.17;73.86;95822.53;5032680;28;20229;-85
2021/08/21 04:41:16;;;;;;;4.28;3.75;;;;;;;18.24;73.44;95831.09;5032070;28;20293;-84
2021/08/21 04:43:43;;;;;;;4.10;3.80;;;;;;;18.33;73.38;95827.16;5031875;28;20249;-86
2021/08/21 04:46:09;;;;;;;3.70;3.40;;;;;;;18.35;73.24;95824.34;5032639;28;20207;-85
2021/08/21 04:48:36;;;;;;;4.28;3.88;;;;;;;18.47;72.98;95836.41;5032689;28;20220;-86
2021/08/21 04:51:02;;;;;;;5.00;3.83;;;;;;;18.58;72.37;95837.50;5032375;28;20226;-87
2021/08/21 04:53:30;;;;;;;6.13;4.40;;;;;;;18.66;71.97;95834.63;5032092;28;20218;-82
2021/08/21 04:55:57;;;;;;;4.57;3.60;;;;;;;18.60;72.06;95840.72;5031890;28;20293;-86
2021/08/21 04:58:23;;;;;;;4.72;3.97;;;;;;;18.47;72.35;95836.41;5031749;28;20213;-84
2021/08/21 05:00:50;;;;;;;4.65;4.25;;;;;;;18.20;73.67;95838.53;5032690;28;20199;-85
2021/08/21 05:03:16;;;;;;;5.15;3.95;;;;;;;18.09;75.16;95846.28;5031986;28;20219;-85
2021/08/21 05:05:43;;;;;;;4.20;3.80;;;;;;;18.12;75.05;95853.66;5031831;28;20226;-84
2021/08/21 05:08:10;;;;;;;6.50;3.92;;;;;;;18.28;74.76;95856.47;5031638;28;20209;-84
2021/08/21 05:10:38;;;;;;;4.10;3.65;;;;;;;18.31;75.46;95855.25;5032615;28;20229;-85
2021/08/21 05:13:05;;;;;;;4.05;3.65;;;;;;;18.46;74.16;95855.69;5033685;28;20225;-83
2021/08/21 05:15:33;;;;;;;5.25;4.22;;;;;;;18.61;73.67;95858.75;5034411;28;20741;-85
2021/08/21 05:18:00;;;;;;;13.27;11.90;;;;;;;18.78;72.82;95860.75;5034604;28;20289;-83
2021/08/21 05:20:29;;;;;;;5.80;5.18;;;;;;;18.68;73.71;95848.22;5034060;28;20242;-85
2021/08/21 05:23:06;;;;;;;7.72;6.90;;;;;;;18.72;73.47;95859.81;5031784;28;20199;-84
2021/08/21 05:25:33;;;;;;;5.10;4.20;;;;;;;18.74;73.97;95864.81;5027246;28;20202;-86
2021/08/21 05:28:01;;;;;;;4.93;4.40;;;;;;;18.78;74.00;95869.38;5033922;28;20198;-84
2021/08/21 05:30:28;;;;;;;4.80;4.10;;;;;;;18.90;73.28;95864.19;5036588;28;20233;-83
2021/08/21 05:32:56;;;;;;;4.22;3.90;;;;;;;19.02;72.94;95878.09;5037378;28;20194;-85
2021/08/21 05:35:22;;;;;;;4.85;4.00;;;;;;;19.12;72.53;95874.94;5037714;28;20285;-85
2021/08/21 05:37:49;;;;;;;4.90;4.13;;;;;;;19.24;71.36;95875.78;5023530;28;20199;-86
2021/08/21 05:40:16;;;;;;;4.18;3.75;;;;;;;19.26;71.29;95878.94;5017626;28;20238;-84
2021/08/21 05:42:42;;;;;;;5.60;4.07;;;;;;;19.26;71.27;95874.50;5036741;28;20194;-86
2021/08/21 05:45:11;;;;;;;4.63;4.22;;;;;;;19.29;71.00;95873.28;5037701;28;20222;-86
2021/08/21 05:47:40;;;;;;;4.82;4.43;;;;;;;19.35;70.97;95880.22;5037192;28;20209;-83
2021/08/21 05:50:08;;;;;;;4.47;4.07;;;;;;;19.45;70.70;95879.66;5036707;28;20840;-86
2021/08/21 05:52:34;;;;;;;4.47;4.07;;;;;;;19.52;70.72;95875.16;5037663;28;20225;-81
2021/08/21 05:55:01;;;;;;;4.88;4.32;;;;;;;19.51;70.76;95871.75;5037486;28;20225;-84
2021/08/21 05:57:27;;;;;;;4.40;4.00;;;;;;;19.61;70.67;95882.47;5036190;28;20210;-83
2021/08/21 05:59:54;;;;;;;5.88;4.57;;;;;;;19.67;70.89;95875.53;5016384;28;20580;-82
2021/08/21 06:02:21;;;;;;;5.63;4.18;;;;;;;19.80;70.30;95875.31;5016136;28;20195;-82
2021/08/21 06:04:48;;;;;;;4.60;4.20;;;;;;;19.89;69.37;95870.53;5016979;28;20226;-83
2021/08/21 06:07:14;;;;;;;4.60;4.20;;;;;;;19.99;69.47;95870.78;5015763;28;20234;-84
2021/08/21 06:09:41;;;;;;;8.98;7.85;;;;;;;20.04;69.28;95883.94;5016373;28;20214;-84
2021/08/21 06:12:08;;;;;;;9.25;7.93;;;;;;;20.08;68.88;95885.06;5015965;28;20249;-83
2021/08/21 06:14:37;;;;;;;5.30;4.80;;;;;;;20.12;69.13;95885.41;5012875;28;20238;-82
2021/08/21 06:17:10;;;;;;;4.55;4.15;;;;;;;20.15;68.20;95882.34;5013200;28;20269;-82
2021/08/21 06:19:38;;;;;;;4.40;4.00;;;;;;;20.20;68.60;95880.66;5015966;28;20207;-84
2021/08/21 06:22:06;;;;;;;4.80;4.25;;;;;;;20.21;68.55;95882.22;5037700;28;20201;-82
2021/08/21 06:24:37;;;;;;;5.43;4.35;;;;;;;20.22;69.02;95883.00;5039885;28;20256;-82
2021/08/21 06:27:04;;;;;;;4.57;4.18;;;;;;;20.19;68.39;95879.06;5035247;28;20881;-85
2021/08/21 06:29:35;;;;;;;4.28;3.88;;;;;;;20.24;68.34;95881.75;5032738;28;20202;-83
2021/08/21 06:32:02;;;;;;;4.60;4.20;;;;;;;20.32;68.12;95888.47;5032215;28;20228;-82
2021/08/21 06:34:29;;;;;;;4.60;4.20;;;;;;;20.40;67.98;95888.13;5031243;28;20234;-81
2021/08/21 06:36:57;;;;;;;4.50;3.83;;;;;;;20.43;67.75;95892.13;5025294;28;20671;-84
2021/08/21 06:39:23;;;;;;;4.80;4.20;;;;;;;20.40;67.30;95895.22;5014710;28;20198;-83
2021/08/21 06:41:56;;;;;;;3.92;3.63;;;;;;;20.49;67.12;95893.81;5032849;28;20202;-82
2021/08/21 06:44:25;;;;;;;4.30;4.00;;;;;;;20.55;66.88;95892.91;5037532;28;20226;-82
2021/08/21 06:46:51;;;;;;;4.43;4.03;;;;;;;20.58;67.16;95893.25;5032924;28;20203;-84
2021/08/21 06:49:24;;;;;;;6.00;4.25;;;;;;;20.62;67.09;95890.94;5031922;28;20202;-84
2021/08/21 06:51:50;;;;;;;4.28;3.88;;;;;;;20.73;67.06;95891.94;5032183;28;20226;-84
2021/08/21 06:54:18;;;;;;;18.35;16.55;;;;;;;20.81;67.11;95884.50;5033019;28;20237;-84
2021/08/21 06:56:45;;;;;;;6.10;5.60;;;;;;;20.85;66.52;95890.06;5028573;28;20198;-86
2021/08/21 06:59:11;;;;;;;5.47;4.95;;;;;;;20.92;66.63;95883.69;5023461;28;20202;-86
2021/08/21 07:01:41;;;;;;;6.35;4.55;;;;;;;21.00;66.29;95893.75;5033165;28;20205;-85
2021/08/21 07:04:08;;;;;;;4.38;4.07;;;;;;;21.10;66.25;95889.75;5033610;28;20225;-85
2021/08/21 07:06:34;;;;;;;4.25;3.85;;;;;;;21.17;65.90;95895.63;5032947;28;20261;-86
2021/08/21 07:09:03;;;;;;;4.88;4.05;;;;;;;21.30;66.05;95890.16;5033918;28;20210;-81
2021/08/21 07:11:43;;;;;;;5.30;4.80;;;;;;;21.34;66.54;95888.66;5032840;28;20222;-86
2021/08/21 07:14:10;;;;;;;5.30;4.28;;;;;;;21.49;65.91;95888.09;5033247;28;20419;-86
2021/08/21 07:16:36;;;;;;;4.43;4.13;;;;;;;21.59;64.88;95888.25;5029776;28;20210;-84
2021/08/21 07:19:05;;;;;;;4.45;4.05;;;;;;;21.74;64.69;95888.50;5033636;28;20203;-85
2021/08/21 07:21:32;;;;;;;4.43;4.13;;;;;;;21.85;64.37;95885.00;5035284;28;20221;-84
2021/08/21 07:23:59;;;;;;;4.47;4.18;;;;;;;22.03;64.19;95881.34;5032859;28;20336;-84
2021/08/21 07:26:25;;;;;;;4.30;3.90;;;;;;;22.12;64.09;95881.75;5032765;28;20206;-86
2021/08/21 07:28:53;;;;;;;5.38;4.95;;;;;;;21.97;65.19;95879.66;5031253;28;20209;-86
2021/08/21 07:31:19;;;;;;;4.88;4.47;;;;;;;21.99;65.79;95888.88;5028542;28;20230;-86
2021/08/21 07:33:46;;;;;;;4.30;3.90;;;;;;;22.17;65.56;95884.41;5015325;28;20219;-86
2021/08/21 07:36:12;;;;;;;4.88;4.47;;;;;;;22.37;64.76;95888.09;5034005;28;20202;-84
2021/08/21 07:38:39;;;;;;;5.05;4.55;;;;;;;22.57;63.31;95892.81;5024559;28;20213;-86
2021/08/21 07:41:05;;;;;;;4.70;4.20;;;;;;;22.72;63.47;95879.06;5013363;28;20195;-84
2021/08/21 07:43:32;;;;;;;4.75;4.35;;;;;;;22.61;61.18;95886.06;5013386;28;20243;-87
2021/08/21 07:45:59;;;;;;;5.10;4.60;;;;;;;22.68;61.46;95884.03;5012991;28;20202;-86
2021/08/21 07:48:26;;;;;;;4.57;4.20;;;;;;;22.79;61.61;95879.72;5030814;28;20209;-85
2021/08/21 07:50:52;;;;;;;5.07;4.13;;;;;;;23.04;61.64;95887.88;5032473;28;20293;-86
2021/08/21 07:53:19;;;;;;;5.18;4.72;;;;;;;23.14;61.56;95881.13;5032138;28;20839;-88
2021/08/21 07:55:46;;;;;;;5.07;4.55;;;;;;;23.16;59.24;95885.09;5031724;28;20202;-85
2021/08/21 07:58:12;;;;;;;5.72;4.43;;;;;;;23.21;59.59;95882.53;5030923;28;20198;-86
2021/08/21 08:00:39;;;;;;;4.60;4.20;;;;;;;23.34;59.19;95889.19;5031436;28;20205;-83
2021/08/21 08:03:11;;;;;;;4.38;4.03;;;;;;;23.56;58.97;95886.53;5030999;28;20198;-87
2021/08/21 08:05:38;;;;;;;4.40;4.10;;;;;;;23.65;57.50;95879.78;5015663;28;20233;-84
2021/08/21 08:08:05;;;;;;;5.00;4.50;;;;;;;23.86;57.49;95886.75;5026662;28;20861;-84
2021/08/21 08:10:31;;;;;;;4.35;4.00;;;;;;;24.09;56.88;95890.88;5030622;28;20202;-85
2021/08/21 08:12:58;;;;;;;4.93;4.40;;;;;;;24.07;56.80;95892.94;5030490;28;20228;-84
2021/08/21 08:15:25;;;;;;;4.55;4.18;;;;;;;24.24;56.78;95891.00;5030440;28;20217;-82
2021/08/21 08:17:51;;;;;;;5.07;4.55;;;;;;;24.39;54.75;95890.28;5030377;28;20213;-83
2021/08/21 08:20:19;;;;;;;6.28;4.18;;;;;;;24.41;56.86;95894.25;5024136;28;20206;-86
2021/08/21 08:22:46;;;;;;;5.00;4.60;;;;;;;24.48;54.85;95895.84;5020713;28;20276;-86
2021/08/21 08:25:12;;;;;;;5.15;4.63;;;;;;;24.62;55.08;95902.25;5030321;28;20218;-85
2021/08/21 08:27:39;;;;;;;5.10;4.60;;;;;;;24.76;53.93;95900.72;5030550;28;20210;-86
2021/08/21 08:30:06;;;;;;;5.05;4.63;;;;;;;24.88;54.89;95905.75;5030742;28;20205;-84
2021/08/21 08:32:33;;;;;;;4.43;4.03;;;;;;;25.05;53.92;95898.44;5031909;28;20585;-87
2021/08/21 08:35:00;;;;;;;4.70;4.35;;;;;;;25.08;53.34;95901.38;5032076;28;20332;-86
2021/08/21 08:37:27;;;;;;;5.25;4.15;;;;;;;25.28;53.17;95899.81;5022565;28;20203;-86
2021/08/21 08:39:54;;;;;;;4.60;4.20;;;;;;;25.38;53.28;95900.66;5026423;28;20194;-86
2021/08/21 08:42:22;;;;;;;4.10;3.80;;;;;;;25.50;52.88;95896.94;5033267;28;20569;-86
2021/08/21 08:44:49;;;;;;;4.43;4.10;;;;;;;25.66;52.34;95902.00;5032659;28;20226;-86
2021/08/21 08:47:18;;;;;;;4.78;4.38;;;;;;;25.61;52.40;95901.16;5032968;28;20202;-82
2021/08/21 08:49:46;;;;;;;4.50;4.10;;;;;;;25.67;50.93;95900.94;5030872;28;20198;-84
2021/08/21 08:52:13;;;;;;;6.15;4.70;;;;;;;25.83;51.51;95895.66;5025756;28;20313;-86
2021/08/21 08:54:41;;;;;;;5.30;4.80;;;;;;;26.01;50.76;95898.53;5028632;28;20226;-84
2021/08/21 08:57:08;;;;;;;4.32;4.03;;;;;;;25.98;50.11;95895.66;5030667;28;20202;-84
2021/08/21 08:59:35;;;;;;;4.47;4.07;;;;;;;25.99;50.56;95895.38;5031243;28;20201;-85
2021/08/21 09:02:02;;;;;;;5.05;4.30;;;;;;;26.09;50.55;95895.38;5030847;28;20720;-84
2021/08/21 09:04:29;;;;;;;4.38;4.07;;;;;;;26.08;52.14;95896.44;5032844;28;20233;-82
2021/08/21 09:06:56;;;;;;;4.15;3.85;;;;;;;26.12;50.66;95891.41;5034548;28;20252;-84
2021/08/21 09:09:23;;;;;;;5.43;4.30;;;;;;;25.96;50.69;95897.78;5034047;28;20217;-84
2021/08/21 09:11:53;;;;;;;4.70;4.30;;;;;;;26.13;49.83;95893.78;5015397;28;20222;-84
2021/08/21 09:14:23;;;;;;;5.40;4.35;;;;;;;26.22;48.84;95894.03;5015115;28;20736;-85
2021/08/21 09:16:50;;;;;;;5.07;4.68;;;;;;;26.32;47.52;95894.03;5015008;28;20209;-83
2021/08/21 09:19:25;;;;;;;4.97;4.57;;;;;;;26.39;46.96;95885.81;5015540;28;20199;-84
2021/08/21 09:22:06;;;;;;;4.43;4.03;;;;;;;26.38;46.28;95889.53;5015232;28;20198;-84
2021/08/21 09:24:34;;;;;;;5.10;3.85;;;;;;;26.60;46.63;95889.19;5014942;28;20234;-84
2021/08/21 09:27:20;;;;;;;4.60;4.20;;;;;;;26.78;46.66;95888.59;5020057;28;20206;-86
2021/08/21 09:30:03;;;;;;;4.85;4.00;;;;;;;26.66;45.41;95891.56;5034114;28;20229;-81
2021/08/21 09:32:32;;;;;;;4.30;3.90;;;;;;;26.64;45.74;95888.38;5034602;28;20225;-84
2021/08/21 09:35:02;;;;;;;4.40;4.00;;;;;;;26.56;45.59;95891.56;5034297;28;20222;-86
2021/08/21 09:37:29;;;;;;;4.50;4.10;;;;;;;26.36;46.15;95887.16;5034210;28;20206;-85
2021/08/21 09:40:03;;;;;;;4.97;4.00;;;;;;;26.23;46.54;95889.53;5035071;28;20194;-84
2021/08/21 09:42:39;;;;;;;4.78;3.95;;;;;;;26.26;46.87;95894.28;5034367;28;20205;-85
2021/08/21 09:45:09;;;;;;;4.22;3.92;;;;;;;26.29;46.22;95894.56;5034520;28;20230;-85
2021/08/21 09:47:39;;;;;;;3.72;3.42;;;;;;;26.48;47.36;95887.66;5035492;28;20666;-84
2021/08/21 09:50:14;;;;;;;7.03;4.20;;;;;;;26.72;45.63;95884.41;5035122;28;20209;-86
2021/08/21 09:52:41;;;;;;;3.65;3.30;;;;;;;26.79;45.88;95880.38;5035482;28;20280;-83
2021/08/21 09:55:10;;;;;;;3.80;3.50;;;;;;;26.80;46.41;95881.19;5036053;28;20255;-83
2021/08/21 09:57:37;;;;;;;4.00;3.70;;;;;;;27.06;45.73;95887.16;5036052;28;20217;-85
2021/08/21 10:00:06;;;;;;;3.88;3.58;;;;;;;27.25;43.68;95882.81;5036154;28;20248;-86
2021/08/21 10:02:34;;;;;;;3.80;3.50;;;;;;;27.46;43.57;95875.53;5035703;28;20256;-84
2021/08/21 10:05:01;;;;;;;6.10;5.60;;;;;;;27.44;42.97;95878.47;5034595;28;20245;-85
2021/08/21 10:07:33;;;;;;;4.55;4.15;;;;;;;27.70;43.98;95876.44;5035166;28;20296;-87
2021/08/21 10:10:02;;;;;;;5.25;4.20;;;;;;;27.93;44.27;95864.31;5035806;28;20561;-86
2021/08/21 10:12:30;;;;;;;5.57;3.40;;;;;;;28.06;44.43;95868.16;5035688;28;20306;-86
2021/08/21 10:14:56;;;;;;;4.57;4.00;;;;;;;28.20;41.94;95871.75;5035322;28;20233;-86
2021/08/21 10:17:25;;;;;;;4.13;3.75;;;;;;;28.19;41.27;95876.25;5034292;28;20206;-85
2021/08/21 10:19:51;;;;;;;3.97;3.63;;;;;;;28.06;41.27;95876.13;5034657;28;20289;-87
2021/08/21 10:22:19;;;;;;;4.63;3.90;;;;;;;27.88;42.50;95866.22;5033806;28;20194;-83
2021/08/21 10:24:48;;;;;;;4.05;3.40;;;;;;;27.55;40.97;95868.56;5034246;28;20222;-83
2021/08/21 10:27:20;;;;;;;4.10;3.80;;;;;;;27.39;40.99;95870.56;5034426;28;20209;-84
2021/08/21 10:30:01;;;;;;;4.10;3.70;;;;;;;27.64;41.98;95872.25;5034483;28;20202;-86
2021/08/21 10:32:34;;;;;;;5.15;3.70;;;;;;;27.94;43.41;95870.38;5034308;28;20222;-86
2021/08/21 10:35:01;;;;;;;4.18;3.78;;;;;;;27.95;41.10;95864.03;5034692;28;20245;-86
2021/08/21 10:37:33;;;;;;;4.10;3.67;;;;;;;28.05;41.67;95864.75;5034172;28;20288;-84
2021/08/21 10:40:00;;;;;;;4.50;3.97;;;;;;;28.19;41.46;95865.66;5034903;28;20577;-84
2021/08/21 10:42:29;;;;;;;3.75;3.45;;;;;;;28.39;40.92;95859.38;5033120;28;20201;-85
2021/08/21 10:44:58;;;;;;;4.55;3.90;;;;;;;28.33;42.18;95868.44;5032969;28;20219;-86
2021/08/21 10:47:39;;;;;;;4.65;3.75;;;;;;;28.42;41.38;95860.66;5034732;28;20202;-86
2021/08/21 10:50:33;;;;;;;4.40;4.10;;;;;;;28.46;43.38;95862.47;5033945;28;20753;-86
2021/08/21 10:53:01;;;;;;;4.07;3.75;;;;;;;28.57;41.63;95857.03;5029062;28;20229;-82
2021/08/21 10:55:29;;;;;;;4.40;4.00;;;;;;;28.46;42.10;95859.03;5030142;28;20202;-82
2021/08/21 10:58:08;;;;;;;5.15;3.53;;;;;;;28.25;40.67;95855.81;5033700;28;20206;-82
2021/08/21 11:01:02;;;;;;;3.80;3.50;;;;;;;28.07;40.07;95859.94;5034393;28;20202;-82
2021/08/21 11:03:47;;;;;;;4.03;3.70;;;;;;;28.08;40.25;95858.88;5033311;28;20233;-85
2021/08/21 11:06:30;;;;;;;4.10;3.70;;;;;;;28.24;41.29;95862.19;5013731;28;20254;-83
2021/08/21 11:09:08;;;;;;;4.28;3.97;;;;;;;28.34;40.37;95853.31;5011710;28;20199;-85
2021/08/21 11:11:42;;;;;;;4.20;3.90;;;;;;;28.13;39.79;95855.38;5013540;28;20214;-86
2021/08/21 11:14:24;;;;;;;4.07;3.78;;;;;;;28.18;40.28;95853.47;5029651;28;20724;-85
2021/08/21 11:16:53;;;;;;;5.53;4.00;;;;;;;28.21;40.97;95848.72;5033368;28;20206;-84
2021/08/21 11:19:45;;;;;;;4.60;4.05;;;;;;;28.28;40.72;95857.13;5034510;28;20297;-83
2021/08/21 11:22:29;;;;;;;4.00;3.70;;;;;;;28.18;40.51;95853.47;5036842;28;20202;-84
2021/08/21 11:25:06;;;;;;;4.10;3.80;;;;;;;28.19;41.54;95848.97;5037576;28;20253;-83
2021/08/21 11:27:36;;;;;;;4.20;3.90;;;;;;;28.26;40.74;95852.09;5034433;28;20229;-82
2021/08/21 11:30:24;;;;;;;4.07;3.78;;;;;;;28.41;40.68;95843.19;5035729;28;20208;-86
2021/08/21 11:32:58;;;;;;;3.90;3.60;;;;;;;28.47;39.93;95837.56;5032910;28;20284;-84
2021/08/21 11:35:28;;;;;;;3.95;3.30;;;;;;;28.58;40.23;95846.16;5035839;28;20202;-83
2021/08/21 11:38:00;;;;;;;4.38;3.78;;;;;;;28.65;39.57;95848.47;5034354;28;20208;-85
2021/08/21 11:40:34;;;;;;;4.10;3.70;;;;;;;28.53;40.79;95839.06;5033732;28;20208;-85